createdAt,value
2019-01-14T00:02:22.972Z,6.04
2019-01-14T00:04:55.563Z,6.04
2019-01-14T00:07:21.799Z,6.11
2019-01-14T00:09:50.189Z,6.10
2019-01-14T00:12:18.597Z,6.08
2019-01-14T00:14:47.279Z,6.07
2019-01-14T00:17:15.702Z,6.02
2019-01-14T00:19:44.246Z,5.97
2019-01-14T00:22:13.274Z,5.93
2019-01-14T00:24:42.021Z,5.89
2019-01-14T00:27:10.689Z,5.84
2019-01-14T00:29:39.420Z,5.79
2019-01-14T00:32:08.083Z,5.78
2019-01-14T00:34:36.571Z,5.76
2019-01-14T00:37:05.390Z,5.72
2019-01-14T00:39:33.807Z,5.71
2019-01-14T00:42:02.503Z,5.71
2019-01-14T00:44:31.158Z,5.70
2019-01-14T00:46:59.866Z,5.67
2019-01-14T00:49:28.534Z,5.67
2019-01-14T00:51:57.196Z,5.67
2019-01-14T00:54:25.896Z,5.64
2019-01-14T00:56:56.108Z,5.62
2019-01-14T00:59:24.783Z,5.59
2019-01-14T01:01:53.184Z,5.57
2019-01-14T01:04:21.882Z,5.56
2019-01-14T01:06:52.949Z,5.54
2019-01-14T01:09:21.800Z,5.53
2019-01-14T01:11:50.465Z,5.51
2019-01-14T01:14:18.875Z,5.47
2019-01-14T01:16:47.627Z,5.40
2019-01-14T01:19:16.409Z,5.38
2019-01-14T01:21:44.830Z,5.36
2019-01-14T01:24:13.243Z,5.35
2019-01-14T01:26:41.904Z,5.34
2019-01-14T01:29:10.592Z,5.36
2019-01-14T01:31:39.269Z,5.37
2019-01-14T01:34:07.771Z,5.36
2019-01-14T01:36:36.429Z,5.37
2019-01-14T01:39:07.246Z,5.36
2019-01-14T01:41:36.004Z,5.40
2019-01-14T01:44:04.806Z,5.42
2019-01-14T01:46:33.643Z,5.43
2019-01-14T01:49:02.361Z,5.45
2019-01-14T01:51:31.079Z,5.47
2019-01-14T01:53:59.828Z,5.47
2019-01-14T01:56:28.323Z,5.50
2019-01-14T01:58:57.134Z,5.49
2019-01-14T02:01:25.798Z,5.52
2019-01-14T02:03:54.550Z,5.53
2019-01-14T02:06:23.521Z,5.55
2019-01-14T02:08:52.210Z,5.54
2019-01-14T02:11:20.895Z,5.57
2019-01-14T02:13:50.234Z,5.57
2019-01-14T02:16:18.639Z,5.56
2019-01-14T02:18:47.338Z,5.58
2019-01-14T02:21:16.011Z,5.60
2019-01-14T02:23:44.699Z,5.61
2019-01-14T02:26:13.378Z,5.62
2019-01-14T02:28:42.028Z,5.65
2019-01-14T02:31:10.859Z,5.66
2019-01-14T02:33:39.524Z,5.66
2019-01-14T02:36:08.270Z,5.67
2019-01-14T02:38:36.955Z,5.69
2019-01-14T02:41:05.791Z,5.69
2019-01-14T02:43:34.479Z,5.67
2019-01-14T02:46:03.301Z,5.64
2019-01-14T02:48:32.026Z,5.62
2019-01-14T02:51:02.049Z,5.59
2019-01-14T02:53:30.810Z,5.61
2019-01-14T02:56:00.081Z,5.60
2019-01-14T02:58:28.787Z,5.59
2019-01-14T03:00:57.471Z,5.60
2019-01-14T03:03:26.125Z,5.64
2019-01-14T03:05:54.572Z,5.64
2019-01-14T03:08:22.957Z,5.61
2019-01-14T03:10:51.406Z,5.62
2019-01-14T03:13:20.140Z,5.63
2019-01-14T03:15:48.611Z,5.65
2019-01-14T03:18:17.319Z,5.65
2019-01-14T03:20:45.990Z,5.67
2019-01-14T03:23:14.639Z,5.69
2019-01-14T03:25:43.426Z,5.69
2019-01-14T03:28:12.087Z,5.72
2019-01-14T03:30:40.565Z,5.73
2019-01-14T03:33:09.234Z,5.73
2019-01-14T03:35:37.685Z,5.76
2019-01-14T03:38:06.469Z,5.77
2019-01-14T03:40:35.166Z,5.78
2019-01-14T03:43:05.629Z,5.77
2019-01-14T03:45:34.397Z,5.74
2019-01-14T03:48:03.235Z,5.74
2019-01-14T03:50:31.758Z,5.73
2019-01-14T03:53:00.454Z,5.72
2019-01-14T03:55:28.942Z,5.71
2019-01-14T03:57:57.767Z,5.76
2019-01-14T04:00:26.595Z,5.77
2019-01-14T04:02:55.320Z,5.76
2019-01-14T04:05:23.770Z,5.74
2019-01-14T04:07:52.479Z,5.71
2019-01-14T04:10:21.265Z,5.69
2019-01-14T04:12:50.597Z,5.64
2019-01-14T04:15:20.235Z,5.60
2019-01-14T04:17:49.045Z,5.58
2019-01-14T04:20:18.868Z,5.57
2019-01-14T04:22:47.744Z,5.57
2019-01-14T04:25:16.292Z,5.55
2019-01-14T04:27:44.994Z,5.54
2019-01-14T04:30:16.664Z,5.53
2019-01-14T04:32:45.316Z,5.55
2019-01-14T04:35:14.007Z,5.54
2019-01-14T04:37:42.822Z,5.53
2019-01-14T04:40:16.003Z,5.51
2019-01-14T04:42:44.848Z,5.53
2019-01-14T04:45:17.185Z,5.52
2019-01-14T04:47:46.331Z,5.51
2019-01-14T04:50:17.867Z,5.50
2019-01-14T04:52:46.623Z,5.48
2019-01-14T04:55:15.216Z,5.46
2019-01-14T04:57:44.676Z,5.47
2019-01-14T05:00:15.899Z,5.47
2019-01-14T05:02:44.619Z,5.46
2019-01-14T05:05:13.979Z,5.45
2019-01-14T05:07:43.053Z,5.44
2019-01-14T05:10:17.332Z,5.45
2019-01-14T05:12:46.162Z,5.42
2019-01-14T05:15:14.976Z,5.41
2019-01-14T05:17:43.818Z,5.37
2019-01-14T05:20:23.740Z,5.33
2019-01-14T05:22:52.661Z,5.28
2019-01-14T05:25:21.356Z,5.25
2019-01-14T05:27:50.139Z,5.22
2019-01-14T05:30:20.581Z,5.18
2019-01-14T05:32:49.399Z,5.18
2019-01-14T05:35:18.151Z,5.17
2019-01-14T05:37:47.391Z,5.19
2019-01-14T05:40:23.801Z,5.18
2019-01-14T05:42:52.362Z,5.20
2019-01-14T05:45:21.037Z,5.23
2019-01-14T05:47:49.470Z,5.23
2019-01-14T05:50:22.613Z,5.22
2019-01-14T05:52:51.299Z,5.23
2019-01-14T05:55:20.945Z,5.25
2019-01-14T05:57:49.492Z,5.26
2019-01-14T06:00:31.710Z,5.26
2019-01-14T06:03:00.470Z,5.28
2019-01-14T06:05:29.169Z,5.28
2019-01-14T06:07:57.864Z,5.28
2019-01-14T06:10:27.100Z,5.29
2019-01-14T06:12:55.780Z,5.30
2019-01-14T06:15:24.279Z,5.30
2019-01-14T06:17:53.011Z,5.32
2019-01-14T06:20:23.481Z,5.34
2019-01-14T06:22:52.168Z,5.35
2019-01-14T06:25:20.674Z,5.36
2019-01-14T06:27:49.320Z,5.35
2019-01-14T06:30:23.415Z,5.35
2019-01-14T06:32:52.133Z,5.34
2019-01-14T06:35:21.047Z,5.34
2019-01-14T06:37:52.528Z,5.33
2019-01-14T06:40:22.298Z,5.34
2019-01-14T06:42:50.709Z,5.34
2019-01-14T06:45:19.290Z,5.34
2019-01-14T06:47:48.106Z,5.34
2019-01-14T06:50:18.844Z,5.35
2019-01-14T06:52:47.687Z,5.34
2019-01-14T06:55:16.626Z,5.30
2019-01-14T06:57:45.188Z,5.27
2019-01-14T07:00:16.760Z,5.24
2019-01-14T07:02:45.630Z,5.23
2019-01-14T07:05:14.605Z,5.21
2019-01-14T07:07:43.294Z,5.19
2019-01-14T07:10:15.197Z,5.17
2019-01-14T07:12:43.830Z,4.67
2019-01-14T07:15:12.369Z,4.49
2019-01-14T07:17:40.871Z,4.50
2019-01-14T07:20:12.030Z,4.45
2019-01-14T07:22:40.768Z,4.41
2019-01-14T07:25:10.514Z,4.40
2019-01-14T07:27:39.347Z,4.38
2019-01-14T07:30:13.972Z,4.37
2019-01-14T07:32:42.707Z,4.39
2019-01-14T07:35:11.651Z,4.40
2019-01-14T07:37:40.502Z,4.29
2019-01-14T07:40:14.774Z,4.24
2019-01-14T07:42:43.672Z,4.25
2019-01-14T07:45:15.369Z,4.20
2019-01-14T07:47:44.067Z,4.24
2019-01-14T07:50:15.907Z,4.22
2019-01-14T07:52:44.697Z,4.12
2019-01-14T07:55:13.526Z,4.12
2019-01-14T07:57:42.226Z,4.10
2019-01-14T08:00:19.342Z,4.14
2019-01-14T08:02:48.280Z,4.13
2019-01-14T08:05:17.087Z,4.14
2019-01-14T08:07:45.739Z,4.13
2019-01-14T08:10:14.682Z,4.09
2019-01-14T08:12:43.512Z,4.08
2019-01-14T08:15:15.005Z,4.08
2019-01-14T08:17:43.460Z,4.04
2019-01-14T08:20:12.795Z,4.09
2019-01-14T08:22:41.646Z,4.12
2019-01-14T08:25:12.498Z,4.11
2019-01-14T08:27:41.385Z,4.09
2019-01-14T08:30:13.147Z,4.05
2019-01-14T08:32:41.597Z,4.04
2019-01-14T08:35:10.140Z,4.03
2019-01-14T08:37:38.796Z,4.05
2019-01-14T08:40:10.259Z,4.04
2019-01-14T08:42:39.069Z,4.07
2019-01-14T08:45:09.601Z,4.07
2019-01-14T08:47:38.107Z,4.04
2019-01-14T08:50:09.750Z,4.02
2019-01-14T08:52:38.503Z,4.02
2019-01-14T08:55:07.840Z,4.01
2019-01-14T08:57:36.421Z,4.07
2019-01-14T09:00:08.810Z,4.09
2019-01-14T09:02:37.533Z,4.07
2019-01-14T09:05:07.625Z,4.09
2019-01-14T09:07:36.352Z,4.13
2019-01-14T09:10:08.154Z,4.19
2019-01-14T09:12:36.596Z,4.15
2019-01-14T09:15:08.084Z,4.23
2019-01-14T09:17:36.911Z,4.21
2019-01-14T09:20:08.658Z,4.21
2019-01-14T09:22:37.403Z,4.23
2019-01-14T09:25:08.249Z,4.23
2019-01-14T09:27:36.944Z,4.24
2019-01-14T09:30:11.676Z,4.26
2019-01-14T09:32:40.335Z,4.29
2019-01-14T09:35:09.174Z,4.28
2019-01-14T09:37:37.936Z,4.28
2019-01-14T09:40:09.423Z,4.29
2019-01-14T09:42:37.895Z,4.29
2019-01-14T09:45:07.484Z,4.32
2019-01-14T09:47:36.234Z,4.35
2019-01-14T09:50:07.406Z,4.40
2019-01-14T09:52:36.177Z,4.47
2019-01-14T09:55:07.928Z,4.49
2019-01-14T09:57:36.596Z,4.50
2019-01-14T10:00:08.152Z,4.50
2019-01-14T10:02:37.128Z,4.57
2019-01-14T10:05:09.043Z,4.58
2019-01-14T10:07:38.769Z,4.58
2019-01-14T10:10:10.370Z,4.60
2019-01-14T10:12:39.099Z,4.60
2019-01-14T10:15:10.809Z,4.57
2019-01-14T10:17:40.327Z,4.52
2019-01-14T10:20:10.530Z,4.51
2019-01-14T10:22:39.344Z,4.49
2019-01-14T10:25:09.373Z,4.50
2019-01-14T10:27:38.202Z,4.54
2019-01-14T10:30:15.603Z,4.56
2019-01-14T10:32:44.460Z,4.62
2019-01-14T10:35:13.201Z,4.68
2019-01-14T10:37:41.770Z,4.75
2019-01-14T10:40:15.773Z,4.80
2019-01-14T10:42:44.503Z,4.97
2019-01-14T10:45:21.558Z,4.97
2019-01-14T10:47:50.486Z,4.92
2019-01-14T10:50:20.213Z,4.72
2019-01-14T10:52:50.428Z,4.55
2019-01-14T10:55:18.910Z,4.45
2019-01-14T10:57:47.596Z,4.40
2019-01-14T11:00:26.843Z,4.41
2019-01-14T11:02:56.134Z,4.41
2019-01-14T11:05:27.383Z,4.40
2019-01-14T11:07:56.246Z,4.40
2019-01-14T11:10:25.067Z,4.38
2019-01-14T11:12:53.940Z,4.39
2019-01-14T11:15:23.147Z,4.43
2019-01-14T11:17:52.249Z,4.47
2019-01-14T11:20:29.282Z,4.51
2019-01-14T11:22:58.429Z,4.59
2019-01-14T11:25:27.245Z,4.60
2019-01-14T11:27:56.086Z,4.60
2019-01-14T11:30:26.988Z,4.61
2019-01-14T11:32:55.790Z,4.65
2019-01-14T11:35:24.297Z,4.71
2019-01-14T11:37:53.097Z,4.73
2019-01-14T11:40:28.029Z,4.72
2019-01-14T11:42:56.515Z,4.71
2019-01-14T11:45:25.036Z,4.67
2019-01-14T11:47:53.849Z,4.62
2019-01-14T11:50:22.328Z,4.59
2019-01-14T11:52:51.027Z,4.60
2019-01-14T11:55:19.439Z,4.62
2019-01-14T11:57:47.970Z,4.68
2019-01-14T12:00:21.612Z,4.71
2019-01-14T12:02:50.432Z,4.73
2019-01-14T12:05:19.251Z,4.73
2019-01-14T12:07:48.091Z,4.74
2019-01-14T12:10:16.553Z,4.84
2019-01-14T12:12:45.021Z,4.86
2019-01-14T12:15:19.282Z,4.81
2019-01-14T12:17:47.679Z,4.84
2019-01-14T12:20:16.735Z,4.79
2019-01-14T12:22:46.062Z,4.77
2019-01-14T12:25:14.973Z,4.78
2019-01-14T12:27:43.773Z,4.77
2019-01-14T12:30:15.500Z,4.75
2019-01-14T12:32:44.279Z,4.71
2019-01-14T12:35:12.758Z,4.69
2019-01-14T12:37:41.461Z,4.68
2019-01-14T12:40:12.364Z,4.70
2019-01-14T12:42:41.153Z,4.72
2019-01-14T12:45:12.768Z,4.78
2019-01-14T12:47:41.455Z,4.79
2019-01-14T12:50:12.992Z,4.83
2019-01-14T12:52:41.694Z,4.83
2019-01-14T12:55:12.720Z,4.84
2019-01-14T12:57:41.240Z,4.79
2019-01-14T13:00:15.174Z,4.72
2019-01-14T13:02:43.894Z,3.43
2019-01-14T13:05:14.697Z,3.00
2019-01-14T13:07:43.132Z,2.83
2019-01-14T13:10:14.083Z,2.81
2019-01-14T13:12:42.919Z,2.84
2019-01-14T13:15:14.859Z,2.85
2019-01-14T13:17:43.705Z,2.87
2019-01-14T13:20:15.251Z,2.93
2019-01-14T13:22:44.125Z,2.97
2019-01-14T13:25:13.058Z,3.02
2019-01-14T13:27:43.634Z,3.02
2019-01-14T13:30:15.380Z,3.03
2019-01-14T13:32:43.920Z,3.11
2019-01-14T13:35:12.821Z,3.24
2019-01-14T13:37:43.148Z,3.24
2019-01-14T13:40:13.054Z,3.28
2019-01-14T13:42:41.843Z,3.57
2019-01-14T13:45:13.585Z,3.85
2019-01-14T13:47:42.091Z,3.95
2019-01-14T13:50:13.518Z,3.98
2019-01-14T13:52:41.946Z,4.11
2019-01-14T13:55:10.922Z,4.12
2019-01-14T13:57:39.654Z,4.17
2019-01-14T14:00:11.578Z,4.14
2019-01-14T14:02:40.238Z,4.17
2019-01-14T14:05:09.085Z,4.29
2019-01-14T14:07:37.786Z,4.39
2019-01-14T14:10:09.553Z,4.47
2019-01-14T14:12:38.329Z,4.48
2019-01-14T14:15:09.943Z,4.43
2019-01-14T14:17:38.689Z,4.33
2019-01-14T14:20:11.714Z,4.15
2019-01-14T14:22:40.469Z,4.11
2019-01-14T14:25:11.104Z,4.08
2019-01-14T14:27:39.581Z,4.04
2019-01-14T14:30:17.320Z,4.04
2019-01-14T14:32:45.995Z,4.01
2019-01-14T14:35:15.217Z,3.99
2019-01-14T14:37:43.927Z,3.98
2019-01-14T14:40:12.460Z,3.96
2019-01-14T14:42:41.017Z,4.00
2019-01-14T14:45:12.431Z,4.04
2019-01-14T14:47:40.941Z,4.03
2019-01-14T14:50:15.180Z,4.03
2019-01-14T14:52:43.685Z,4.02
2019-01-14T14:55:12.412Z,4.00
2019-01-14T14:57:41.129Z,4.02
2019-01-14T15:00:15.456Z,4.01
2019-01-14T15:02:44.213Z,4.01
2019-01-14T15:05:13.356Z,3.96
2019-01-14T15:07:41.823Z,3.93
2019-01-14T15:10:15.797Z,3.95
2019-01-14T15:12:44.650Z,3.95
2019-01-14T15:15:16.267Z,3.92
2019-01-14T15:17:44.750Z,3.92
2019-01-14T15:20:15.954Z,3.90
2019-01-14T15:22:44.680Z,3.88
2019-01-14T15:25:13.840Z,3.86
2019-01-14T15:27:42.617Z,3.89
2019-01-14T15:30:14.646Z,3.86
2019-01-14T15:32:43.035Z,3.86
2019-01-14T15:35:11.692Z,3.87
2019-01-14T15:37:40.438Z,3.87
2019-01-14T15:40:12.314Z,3.81
2019-01-14T15:42:41.101Z,3.77
2019-01-14T15:45:12.967Z,3.75
2019-01-14T15:47:41.723Z,3.74
2019-01-14T15:50:11.287Z,3.67
2019-01-14T15:52:40.109Z,3.59
2019-01-14T15:55:14.512Z,3.55
2019-01-14T15:57:43.329Z,3.53
2019-01-14T16:00:16.841Z,3.53
2019-01-14T16:02:45.610Z,3.54
2019-01-14T16:05:15.287Z,3.56
2019-01-14T16:07:43.922Z,3.56
2019-01-14T16:10:15.512Z,3.50
2019-01-14T16:12:43.916Z,3.47
2019-01-14T16:15:12.782Z,3.48
2019-01-14T16:17:41.730Z,3.47
2019-01-14T16:20:15.885Z,3.46
2019-01-14T16:22:44.757Z,3.44
2019-01-14T16:25:13.491Z,3.43
2019-01-14T16:27:42.054Z,3.44
2019-01-14T16:30:16.119Z,3.44
2019-01-14T16:32:44.824Z,3.43
2019-01-14T16:35:13.783Z,3.43
2019-01-14T16:37:42.494Z,3.42
2019-01-14T16:40:17.943Z,3.43
2019-01-14T16:42:41.966Z,3.43
2019-01-14T16:45:14.121Z,3.42
2019-01-14T16:47:42.887Z,3.43
2019-01-14T16:50:13.905Z,3.44
2019-01-14T16:52:42.777Z,3.43
2019-01-14T16:55:12.970Z,3.43
2019-01-14T16:57:41.729Z,3.44
2019-01-14T17:00:13.586Z,3.46
2019-01-14T17:02:42.343Z,3.48
2019-01-14T17:05:13.540Z,3.45
2019-01-14T17:07:41.424Z,3.45
2019-01-14T17:10:12.949Z,3.45
2019-01-14T17:12:41.376Z,3.43
2019-01-14T17:15:10.290Z,3.43
2019-01-14T17:17:39.234Z,3.41
2019-01-14T17:20:16.576Z,3.41
2019-01-14T17:22:46.656Z,3.38
2019-01-14T17:25:15.486Z,3.32
2019-01-14T17:27:45.261Z,3.32
2019-01-14T17:30:16.270Z,3.31
2019-01-14T17:32:45.018Z,3.29
2019-01-14T17:35:14.552Z,3.30
2019-01-14T17:37:43.423Z,3.33
2019-01-14T17:40:14.659Z,3.35
2019-01-14T17:42:43.183Z,3.31
2019-01-14T17:45:12.160Z,3.31
2019-01-14T17:47:40.952Z,3.32
2019-01-14T17:50:15.289Z,3.30
2019-01-14T17:52:43.978Z,3.29
2019-01-14T17:55:12.539Z,3.29
2019-01-14T17:57:41.068Z,3.27
2019-01-14T18:00:15.631Z,3.28
2019-01-14T18:02:44.378Z,3.27
2019-01-14T18:05:14.512Z,3.27
2019-01-14T18:07:43.034Z,3.30
2019-01-14T18:10:14.842Z,3.29
2019-01-14T18:12:43.581Z,3.29
2019-01-14T18:15:13.067Z,3.28
2019-01-14T18:17:41.553Z,3.28
2019-01-14T18:20:15.642Z,3.29
2019-01-14T18:22:44.445Z,3.29
2019-01-14T18:25:14.738Z,3.29
2019-01-14T18:27:43.613Z,3.27
2019-01-14T18:30:17.288Z,3.29
2019-01-14T18:32:46.106Z,3.31
2019-01-14T18:35:17.211Z,3.32
2019-01-14T18:37:46.277Z,3.33
2019-01-14T18:40:16.698Z,3.33
2019-01-14T18:42:45.504Z,3.33
2019-01-14T18:45:18.462Z,3.33
2019-01-14T18:47:47.280Z,3.32
2019-01-14T18:50:18.579Z,3.32
2019-01-14T18:52:47.703Z,3.31
2019-01-14T18:55:18.000Z,3.28
2019-01-14T18:57:46.485Z,3.27
2019-01-14T19:00:18.298Z,3.26
2019-01-14T19:02:47.044Z,3.26
2019-01-14T19:05:16.523Z,3.26
2019-01-14T19:07:45.018Z,3.25
2019-01-14T19:10:14.468Z,3.26
2019-01-14T19:12:43.062Z,3.25
2019-01-14T19:15:14.717Z,3.21
2019-01-14T19:17:43.379Z,3.20
2019-01-14T19:20:17.638Z,3.20
2019-01-14T19:22:46.460Z,3.19
2019-01-14T19:25:15.250Z,3.20
2019-01-14T19:27:44.372Z,3.17
2019-01-14T19:30:15.839Z,3.14
2019-01-14T19:32:44.575Z,3.12
2019-01-14T19:35:13.584Z,3.06
2019-01-14T19:37:42.370Z,3.04
2019-01-14T19:40:14.001Z,3.02
2019-01-14T19:42:42.762Z,2.98
2019-01-14T19:45:14.224Z,2.96
2019-01-14T19:47:43.467Z,2.90
2019-01-14T19:50:18.101Z,2.90
2019-01-14T19:52:46.621Z,2.90
2019-01-14T19:55:15.217Z,2.92
2019-01-14T19:57:44.019Z,2.92
2019-01-14T20:00:18.887Z,2.89
2019-01-14T20:02:47.658Z,2.90
2019-01-14T20:05:16.395Z,2.89
2019-01-14T20:07:45.114Z,2.90
2019-01-14T20:10:15.750Z,2.90
2019-01-14T20:12:44.217Z,2.90
2019-01-14T20:15:18.442Z,2.89
2019-01-14T20:17:47.217Z,2.89
2019-01-14T20:20:16.158Z,2.90
2019-01-14T20:22:45.077Z,2.90
2019-01-14T20:25:14.160Z,2.90
2019-01-14T20:27:44.680Z,2.89
2019-01-14T20:30:21.614Z,2.88
2019-01-14T20:32:50.750Z,2.88
2019-01-14T20:35:19.611Z,2.89
2019-01-14T20:37:48.714Z,2.88
2019-01-14T20:40:17.419Z,2.90
2019-01-14T20:42:46.769Z,2.88
2019-01-14T20:45:18.640Z,2.89
2019-01-14T20:47:47.444Z,2.90
2019-01-14T20:50:18.349Z,2.87
2019-01-14T20:52:46.967Z,2.90
2019-01-14T20:55:16.002Z,2.91
2019-01-14T20:57:44.478Z,2.88
2019-01-14T21:00:19.319Z,2.88
2019-01-14T21:02:47.915Z,2.87
2019-01-14T21:05:17.565Z,2.85
2019-01-14T21:07:46.420Z,2.86
2019-01-14T21:10:17.945Z,2.85
2019-01-14T21:12:46.765Z,2.85
2019-01-14T21:15:15.716Z,2.84
2019-01-14T21:17:44.532Z,2.83
2019-01-14T21:20:16.355Z,2.83
2019-01-14T21:22:45.481Z,2.84
2019-01-14T21:25:14.310Z,2.84
2019-01-14T21:27:43.058Z,2.82
2019-01-14T21:30:20.372Z,2.81
2019-01-14T21:32:49.106Z,2.78
2019-01-14T21:35:17.980Z,2.75
2019-01-14T21:37:46.804Z,2.71
2019-01-14T21:40:16.152Z,2.68
2019-01-14T21:42:44.565Z,2.66
2019-01-14T21:45:15.278Z,2.62
2019-01-14T21:47:44.060Z,2.59
2019-01-14T21:50:15.467Z,2.56
2019-01-14T21:52:44.233Z,2.55
2019-01-14T21:55:15.446Z,2.55
2019-01-14T21:57:44.150Z,2.52
2019-01-14T22:00:15.910Z,2.50
2019-01-14T22:02:44.450Z,2.48
2019-01-14T22:05:13.277Z,2.42
2019-01-14T22:07:41.921Z,2.41
2019-01-14T22:10:15.969Z,2.41
2019-01-14T22:12:44.530Z,2.41
2019-01-14T22:15:13.539Z,2.40
2019-01-14T22:17:42.040Z,2.34
2019-01-14T22:20:16.681Z,2.32
2019-01-14T22:22:45.288Z,2.31
2019-01-14T22:25:14.016Z,2.32
2019-01-14T22:27:42.455Z,2.30
2019-01-14T22:30:14.496Z,2.29
2019-01-14T22:32:42.930Z,2.30
2019-01-14T22:35:11.435Z,2.30
2019-01-14T22:37:40.209Z,2.28
2019-01-14T22:40:12.225Z,2.27
2019-01-14T22:42:40.911Z,2.28
2019-01-14T22:45:10.905Z,2.27
2019-01-14T22:47:39.670Z,2.22
2019-01-14T22:50:17.114Z,2.17
2019-01-14T22:52:46.325Z,2.15
2019-01-14T22:55:15.280Z,2.13
2019-01-14T22:57:44.012Z,2.11
2019-01-14T23:00:17.401Z,2.10
2019-01-14T23:02:46.118Z,2.06
2019-01-14T23:05:14.929Z,2.07
2019-01-14T23:07:43.803Z,2.06
2019-01-14T23:10:12.601Z,2.06
2019-01-14T23:12:41.280Z,2.05
2019-01-14T23:15:10.027Z,2.03
2019-01-14T23:17:38.499Z,2.04
2019-01-14T23:20:08.120Z,2.05
2019-01-14T23:22:37.858Z,2.07
2019-01-14T23:25:06.867Z,2.02
2019-01-14T23:27:36.312Z,2.03
2019-01-14T23:30:10.080Z,2.02
2019-01-14T23:32:38.824Z,2.03
2019-01-14T23:35:08.627Z,2.04
2019-01-14T23:37:37.305Z,2.02
2019-01-14T23:40:09.960Z,2.01
2019-01-14T23:42:39.905Z,2.01
2019-01-14T23:45:11.803Z,2.00
2019-01-14T23:47:40.520Z,2.00
2019-01-14T23:50:09.795Z,1.98
2019-01-14T23:52:39.607Z,1.99
2019-01-14T23:55:08.467Z,2.00
2019-01-14T23:57:37.236Z,2.00
